createdAt,value
2023-03-04T00:00:49.416Z,-1.23
2023-03-04T00:03:18.547Z,-1.22
2023-03-04T00:05:47.569Z,-1.22
2023-03-04T00:08:16.762Z,-1.25
2023-03-04T00:10:46.162Z,-1.30
2023-03-04T00:13:17.199Z,-1.32
2023-03-04T00:15:45.592Z,-1.33
2023-03-04T00:18:16.836Z,-1.33
2023-03-04T00:20:46.867Z,-1.33
2023-03-04T00:23:17.886Z,-1.37
2023-03-04T00:25:48.015Z,-1.40
2023-03-04T00:28:19.453Z,-1.41
2023-03-04T00:30:50.849Z,-1.40
2023-03-04T00:33:51.544Z,-1.38
2023-03-04T00:36:20.752Z,-1.36
2023-03-04T00:38:50.984Z,-1.37
2023-03-04T00:41:21.301Z,-1.35
2023-03-04T00:43:49.684Z,-1.31
2023-03-04T00:46:21.177Z,-1.28
2023-03-04T00:48:49.973Z,-1.26
2023-03-04T00:51:19.055Z,-1.28
2023-03-04T00:56:52.526Z,-1.28
2023-03-04T00:59:24.840Z,-1.26
2023-03-04T01:01:57.547Z,-1.23
2023-03-04T01:04:27.393Z,-1.21
2023-03-04T01:06:56.872Z,-1.21
2023-03-04T01:09:29.041Z,-1.21
2023-03-04T01:11:59.883Z,-1.20
2023-03-04T01:14:28.866Z,-1.19
2023-03-04T01:16:58.270Z,-1.17
2023-03-04T01:19:27.595Z,-1.15
2023-03-04T01:21:57.806Z,-1.20
2023-03-04T01:24:26.295Z,-1.25
2023-03-04T01:26:57.569Z,-1.27
2023-03-04T01:29:30.445Z,-1.27
2023-03-04T01:32:06.137Z,-1.25
2023-03-04T01:34:34.831Z,-1.26
2023-03-04T01:37:05.908Z,-1.28
2023-03-04T01:39:35.034Z,-1.31
2023-03-04T01:42:05.124Z,-1.33
2023-03-04T01:44:34.039Z,-1.31
2023-03-04T01:47:03.134Z,-1.29
2023-03-04T01:49:34.136Z,-1.28
2023-03-04T01:52:04.698Z,-1.31
2023-03-04T01:54:34.921Z,-1.36
2023-03-04T01:57:11.061Z,-1.39
2023-03-04T01:59:41.596Z,-1.39
2023-03-04T02:02:13.032Z,-1.39
2023-03-04T02:04:47.964Z,-1.39
2023-03-04T02:07:19.917Z,-1.42
2023-03-04T02:09:50.468Z,-1.46
2023-03-04T02:12:19.048Z,-1.51
2023-03-04T02:14:47.935Z,-1.53
2023-03-04T02:17:26.131Z,-1.51
2023-03-04T02:20:20.863Z,-1.51
2023-03-04T02:23:25.924Z,-1.52
2023-03-04T02:26:19.795Z,-1.56
2023-03-04T02:28:52.882Z,-1.57
2023-03-04T02:31:28.339Z,-1.56
2023-03-04T02:33:59.879Z,-1.55
2023-03-04T02:36:35.230Z,-1.55
2023-03-04T02:39:32.124Z,-1.54
2023-03-04T02:42:45.783Z,-1.48
2023-03-04T02:45:45.347Z,-1.45
2023-03-04T02:48:16.153Z,-1.41
2023-03-04T02:50:47.561Z,-1.43
2023-03-04T02:53:17.733Z,-1.47
2023-03-04T02:55:48.527Z,-1.49
2023-03-04T02:58:19.086Z,-1.51
2023-03-04T03:00:57.082Z,-1.48
2023-03-04T03:03:30.687Z,-1.45
2023-03-04T03:06:04.434Z,-1.43
2023-03-04T03:08:39.196Z,-1.42
2023-03-04T03:11:13.115Z,-1.39
2023-03-04T03:13:50.904Z,-1.33
2023-03-04T03:16:21.373Z,-1.25
2023-03-04T03:18:51.959Z,-1.20
2023-03-04T03:21:22.149Z,-1.18
2023-03-04T03:23:56.878Z,-1.18
2023-03-04T03:26:25.576Z,-1.13
2023-03-04T03:28:56.510Z,-1.06
2023-03-04T03:34:33.162Z,-0.97
2023-03-04T03:37:01.790Z,-0.95
2023-03-04T03:39:33.648Z,-0.91
2023-03-04T03:42:02.650Z,-0.85
2023-03-04T03:44:31.227Z,-0.82
2023-03-04T03:46:59.811Z,-0.79
2023-03-04T03:49:33.423Z,-0.77
2023-03-04T03:52:09.236Z,-0.73
2023-03-04T03:54:38.374Z,-0.68
2023-03-04T03:57:08.369Z,-0.66
2023-03-04T03:59:37.061Z,-0.66
2023-03-04T04:02:10.991Z,-0.67
2023-03-04T04:05:16.003Z,-0.66
2023-03-04T04:07:45.495Z,-0.63
2023-03-04T04:11:15.936Z,-0.59
2023-03-04T04:13:45.027Z,-0.57
2023-03-04T04:16:14.259Z,-0.58
2023-03-04T04:18:43.014Z,-0.54
2023-03-04T04:21:17.847Z,-0.50
2023-03-04T04:23:47.295Z,-0.48
2023-03-04T04:26:19.438Z,-0.48
2023-03-04T04:28:47.720Z,-0.46
2023-03-04T04:31:18.937Z,-0.41
2023-03-04T04:33:49.480Z,-0.39
2023-03-04T04:36:29.400Z,-0.39
2023-03-04T04:38:57.851Z,-0.37
2023-03-04T04:41:38.952Z,-0.32
2023-03-04T04:44:19.947Z,-0.31
2023-03-04T04:46:49.479Z,-0.33
2023-03-04T04:49:20.731Z,-0.33
2023-03-04T04:51:50.217Z,-0.30
2023-03-04T04:54:18.797Z,-0.28
2023-03-04T04:56:52.021Z,-0.26
2023-03-04T04:59:29.671Z,-0.25
2023-03-04T05:01:58.831Z,-0.27
2023-03-04T05:04:27.338Z,-0.26
2023-03-04T05:06:57.776Z,-0.24
2023-03-04T05:09:28.181Z,-0.21
2023-03-04T05:11:56.785Z,-0.22
2023-03-04T05:14:27.215Z,-0.21
2023-03-04T05:16:55.899Z,-0.19
2023-03-04T05:19:24.995Z,-0.17
2023-03-04T05:21:53.682Z,-0.17
2023-03-04T05:24:23.899Z,-0.15
2023-03-04T05:26:53.510Z,-0.10
2023-03-04T05:29:24.042Z,-0.04
2023-03-04T05:31:52.279Z,0.00
2023-03-04T05:34:21.382Z,0.03
2023-03-04T05:36:51.230Z,0.05
2023-03-04T05:39:34.053Z,0.09
2023-03-04T05:42:02.376Z,0.14
2023-03-04T05:44:32.216Z,0.17
2023-03-04T05:47:03.345Z,0.18
2023-03-04T05:49:33.154Z,0.19
2023-03-04T05:52:03.075Z,0.23
2023-03-04T05:54:32.783Z,0.30
2023-03-04T05:57:02.701Z,0.39
2023-03-04T05:59:31.180Z,0.45
2023-03-04T06:02:01.731Z,0.48
2023-03-04T06:04:31.320Z,0.50
2023-03-04T06:07:01.234Z,0.54
2023-03-04T06:09:30.124Z,0.61
2023-03-04T06:11:59.426Z,0.68
2023-03-04T06:14:36.136Z,0.70
2023-03-04T06:17:06.665Z,0.71
2023-03-04T06:19:35.668Z,0.76
2023-03-04T06:22:17.626Z,0.83
2023-03-04T06:24:47.271Z,0.90
2023-03-04T06:27:21.681Z,0.91
2023-03-04T06:29:54.153Z,0.91
2023-03-04T06:32:27.355Z,0.94
2023-03-04T06:34:56.645Z,0.99
2023-03-04T06:37:25.842Z,1.05
2023-03-04T06:39:56.360Z,1.08
2023-03-04T06:42:25.592Z,1.14
2023-03-04T06:44:54.616Z,1.20
2023-03-04T06:47:23.353Z,1.30
2023-03-04T06:49:54.353Z,1.35
2023-03-04T06:52:25.227Z,1.38
2023-03-04T06:54:53.920Z,1.41
2023-03-04T06:57:25.162Z,1.46
2023-03-04T06:59:57.636Z,1.51
2023-03-04T07:02:31.230Z,1.55
2023-03-04T07:05:00.430Z,1.52
2023-03-04T07:07:29.526Z,1.54
2023-03-04T07:09:59.648Z,1.61
2023-03-04T07:12:32.633Z,1.72
2023-03-04T07:15:07.745Z,1.77
2023-03-04T07:17:47.007Z,1.81
2023-03-04T07:20:15.800Z,1.87
2023-03-04T07:23:19.820Z,1.88
2023-03-04T07:25:51.500Z,1.90
2023-03-04T07:28:20.363Z,1.90
2023-03-04T07:30:53.473Z,1.95
2023-03-04T07:33:42.856Z,2.00
2023-03-04T07:36:15.320Z,2.02
2023-03-04T07:38:45.331Z,2.05
2023-03-04T07:41:20.892Z,2.15
2023-03-04T07:44:07.289Z,2.22
2023-03-04T07:46:38.322Z,2.27
2023-03-04T07:49:12.026Z,2.33
2023-03-04T07:51:41.331Z,2.36
2023-03-04T07:54:43.439Z,2.39
2023-03-04T07:57:33.402Z,2.44
2023-03-04T08:00:03.076Z,2.49
2023-03-04T08:02:41.127Z,2.55
2023-03-04T08:05:13.073Z,2.57
2023-03-04T08:08:03.127Z,2.59
2023-03-04T08:11:09.212Z,2.63
2023-03-04T08:13:42.407Z,2.67
2023-03-04T08:16:19.654Z,2.75
2023-03-04T08:18:52.800Z,2.80
2023-03-04T08:21:40.392Z,2.85
2023-03-04T08:24:12.391Z,2.82
2023-03-04T08:26:46.365Z,2.80
2023-03-04T08:29:23.420Z,2.82
2023-03-04T08:32:20.174Z,2.83
2023-03-04T08:38:59.037Z,2.81
2023-03-04T08:41:36.625Z,2.83
2023-03-04T08:44:12.861Z,2.94
2023-03-04T08:46:45.611Z,3.06
2023-03-04T08:49:31.029Z,3.08
2023-03-04T08:52:02.052Z,3.05
2023-03-04T08:54:35.794Z,3.08
2023-03-04T08:57:36.922Z,3.14
2023-03-04T09:00:06.281Z,3.11
2023-03-04T09:02:57.448Z,3.04
2023-03-04T09:05:31.696Z,3.07
2023-03-04T09:08:01.702Z,3.14
2023-03-04T09:10:31.033Z,3.15
2023-03-04T09:17:38.677Z,3.19
2023-03-04T09:20:10.505Z,3.13
2023-03-04T09:22:44.894Z,3.12
2023-03-04T09:25:16.806Z,3.12
2023-03-04T09:31:01.283Z,3.06
2023-03-04T09:33:31.849Z,3.01
2023-03-04T09:36:01.654Z,2.93
2023-03-04T09:38:31.582Z,2.87
2023-03-04T09:41:01.094Z,2.83
2023-03-04T09:43:34.145Z,2.77
2023-03-04T09:46:18.897Z,2.68
2023-03-04T09:48:52.906Z,2.66
2023-03-04T09:51:42.152Z,2.62
2023-03-04T09:55:05.262Z,2.59
2023-03-04T09:57:43.079Z,2.56
2023-03-04T10:00:25.975Z,2.53
2023-03-04T10:03:10.321Z,2.58
2023-03-04T10:05:58.037Z,2.58
2023-03-04T10:13:39.487Z,2.40
2023-03-04T10:16:29.728Z,2.39
2023-03-04T10:19:10.305Z,2.39
2023-03-04T10:21:49.456Z,2.40
2023-03-04T10:24:27.369Z,2.37
2023-03-04T10:27:10.930Z,2.35
2023-03-04T10:30:32.395Z,2.35
2023-03-04T10:33:01.860Z,2.58
2023-03-04T10:36:07.427Z,2.86
2023-03-04T10:38:40.581Z,3.41
2023-03-04T10:41:17.872Z,3.98
2023-03-04T10:44:18.450Z,4.52
2023-03-04T10:46:50.309Z,4.98
2023-03-04T10:49:19.719Z,5.10
2023-03-04T10:52:33.455Z,5.12
2023-03-04T10:55:26.435Z,5.09
2023-03-04T10:58:08.454Z,4.90
2023-03-04T11:00:37.553Z,4.64
2023-03-04T11:03:30.611Z,4.44
2023-03-04T11:06:06.390Z,4.33
2023-03-04T11:08:35.333Z,4.23
2023-03-04T11:11:52.585Z,4.11
2023-03-04T11:14:38.382Z,3.97
2023-03-04T11:17:21.159Z,3.93
2023-03-04T11:20:35.925Z,3.89
2023-03-04T11:23:52.364Z,3.86
2023-03-04T11:26:39.943Z,3.76
2023-03-04T11:29:19.621Z,3.66
2023-03-04T11:31:59.767Z,3.54
2023-03-04T11:35:04.142Z,3.40
2023-03-04T11:37:53.783Z,3.33
2023-03-04T11:40:55.603Z,3.31
2023-03-04T11:43:41.537Z,3.23
2023-03-04T11:46:55.483Z,3.21
2023-03-04T11:49:58.323Z,3.28
2023-03-04T11:52:38.661Z,3.36
2023-03-04T11:55:44.268Z,3.48
2023-03-04T11:58:32.570Z,3.53
2023-03-04T12:01:36.989Z,3.54
2023-03-04T12:04:21.564Z,3.48
2023-03-04T12:07:09.896Z,3.37
2023-03-04T12:10:08.935Z,3.34
2023-03-04T12:13:11.538Z,3.33
2023-03-04T12:16:07.666Z,3.32
2023-03-04T12:19:27.918Z,3.37
2023-03-04T12:22:27.743Z,3.39
2023-03-04T12:24:58.006Z,3.44
2023-03-04T12:27:53.825Z,3.45
2023-03-04T12:30:25.580Z,3.40
2023-03-04T12:33:10.767Z,3.34
2023-03-04T12:35:46.012Z,3.22
2023-03-04T12:38:18.315Z,3.12
2023-03-04T12:41:19.737Z,3.09
2023-03-04T12:43:57.892Z,3.01
2023-03-04T12:47:11.849Z,2.96
2023-03-04T12:50:05.216Z,2.90
2023-03-04T12:52:43.671Z,2.95
2023-03-04T12:55:15.956Z,2.95
2023-03-04T12:57:45.417Z,2.93
2023-03-04T13:00:32.819Z,2.89
2023-03-04T13:03:31.066Z,2.88
2023-03-04T13:06:14.063Z,2.85
2023-03-04T13:09:18.877Z,2.81
2023-03-04T13:12:51.052Z,2.76
2023-03-04T13:15:23.088Z,2.68
2023-03-04T13:17:54.645Z,2.66
2023-03-04T13:20:38.529Z,2.68
2023-03-04T13:23:38.900Z,2.69
2023-03-04T13:26:27.052Z,2.72
2023-03-04T13:29:14.729Z,2.72
2023-03-04T13:32:05.641Z,2.76
2023-03-04T13:34:54.801Z,2.75
2023-03-04T13:37:32.956Z,2.75
2023-03-04T13:40:20.922Z,2.75
2023-03-04T13:42:49.807Z,2.76
2023-03-04T13:45:47.881Z,2.81
2023-03-04T13:48:52.793Z,2.85
2023-03-04T13:51:44.111Z,2.82
2023-03-04T13:54:24.186Z,2.81
2023-03-04T13:57:02.400Z,2.80
2023-03-04T14:02:44.723Z,2.71
2023-03-04T14:05:13.307Z,2.66
2023-03-04T14:07:47.462Z,2.63
2023-03-04T14:11:17.658Z,2.60
2023-03-04T14:13:46.342Z,2.59
2023-03-04T14:16:20.686Z,2.58
2023-03-04T14:19:05.867Z,2.59
2023-03-04T14:21:37.107Z,2.60
2023-03-04T14:24:13.424Z,2.59
2023-03-04T14:26:42.414Z,2.57
2023-03-04T14:29:26.975Z,2.54
2023-03-04T14:31:55.345Z,2.53
2023-03-04T14:34:59.809Z,2.52
2023-03-04T14:37:34.876Z,2.50
2023-03-04T14:40:07.604Z,2.53
2023-03-04T14:42:40.395Z,2.54
2023-03-04T14:45:13.719Z,2.55
2023-03-04T14:47:48.845Z,2.55
2023-03-04T14:50:34.071Z,2.56
2023-03-04T14:53:08.878Z,2.54
2023-03-04T14:56:17.600Z,2.51
2023-03-04T15:01:45.092Z,2.45
2023-03-04T15:04:14.458Z,2.43
2023-03-04T15:06:53.623Z,2.44
2023-03-04T15:09:26.633Z,2.43
2023-03-04T15:12:06.791Z,2.42
2023-03-04T15:14:46.697Z,2.40
2023-03-04T15:17:23.439Z,2.37
2023-03-04T15:20:04.395Z,2.34
2023-03-04T15:22:44.915Z,2.36
2023-03-04T15:25:46.100Z,2.38
2023-03-04T15:28:18.557Z,2.35
2023-03-04T15:30:46.972Z,2.31
2023-03-04T15:33:21.350Z,2.29
2023-03-04T15:36:32.871Z,2.26
2023-03-04T15:39:15.449Z,2.28
2023-03-04T15:42:35.686Z,2.33
2023-03-04T15:45:19.835Z,2.30
2023-03-04T15:47:48.308Z,2.27
2023-03-04T15:50:17.932Z,2.23
2023-03-04T15:53:40.567Z,2.20
2023-03-04T15:56:21.365Z,2.20
2023-03-04T15:58:57.719Z,2.18
2023-03-04T16:01:27.769Z,2.16
2023-03-04T16:03:57.298Z,2.15
2023-03-04T16:07:01.083Z,2.13
2023-03-04T16:09:33.891Z,2.11
2023-03-04T16:12:02.479Z,2.13
2023-03-04T16:14:31.127Z,2.13
2023-03-04T16:16:59.908Z,2.12
2023-03-04T16:19:29.386Z,2.10
2023-03-04T16:22:30.426Z,2.07
2023-03-04T16:24:59.130Z,2.05
2023-03-04T16:27:28.886Z,2.06
2023-03-04T16:33:37.930Z,2.07
2023-03-04T16:36:27.295Z,2.05
2023-03-04T16:39:32.575Z,2.02
2023-03-04T16:42:10.082Z,2.04
2023-03-04T16:44:39.658Z,2.06
2023-03-04T16:47:12.024Z,2.06
2023-03-04T16:49:40.509Z,2.04
2023-03-04T16:52:23.359Z,2.00
2023-03-04T16:54:52.508Z,1.95
2023-03-04T16:57:43.703Z,1.95
2023-03-04T17:00:14.274Z,1.97
2023-03-04T17:02:45.864Z,1.97
2023-03-04T17:05:19.166Z,1.94
2023-03-04T17:07:47.751Z,1.89
2023-03-04T17:10:23.770Z,1.91
2023-03-04T17:12:54.286Z,1.96
2023-03-04T17:16:44.806Z,2.00
2023-03-04T17:19:42.350Z,2.00
2023-03-04T17:23:19.616Z,1.96
2023-03-04T17:25:55.659Z,1.93
2023-03-04T17:28:26.910Z,1.96
2023-03-04T17:30:55.449Z,1.97
2023-03-04T17:33:24.620Z,1.96
2023-03-04T17:35:53.353Z,1.94
2023-03-04T17:38:22.672Z,1.93
2023-03-04T17:40:51.782Z,1.96
2023-03-04T17:44:06.390Z,2.01
2023-03-04T17:46:35.404Z,2.04
2023-03-04T17:49:04.590Z,2.01
2023-03-04T17:52:09.132Z,1.98
2023-03-04T17:54:38.453Z,1.98
2023-03-04T17:57:10.023Z,1.99
2023-03-04T17:59:42.446Z,2.03
2023-03-04T18:02:25.253Z,2.02
2023-03-04T18:04:53.877Z,2.02
2023-03-04T18:07:22.381Z,1.97
2023-03-04T18:24:35.258Z,3.06
2023-03-04T18:27:03.547Z,3.31
2023-03-04T18:29:34.569Z,3.10
2023-03-04T18:32:03.119Z,2.87
2023-03-04T18:34:33.780Z,2.68
2023-03-04T18:37:02.249Z,2.54
2023-03-04T18:39:32.328Z,2.43
2023-03-04T18:42:04.338Z,2.32
2023-03-04T18:44:32.816Z,2.22
2023-03-04T18:47:01.615Z,2.18
2023-03-04T18:49:29.886Z,2.17
2023-03-04T18:51:58.671Z,2.15
2023-03-04T18:54:27.152Z,2.08
2023-03-04T18:57:02.424Z,2.02
2023-03-04T18:59:37.139Z,1.98
2023-03-04T19:02:13.006Z,1.96
2023-03-04T19:04:51.385Z,1.94
2023-03-04T19:07:19.874Z,1.95
2023-03-04T19:09:48.456Z,1.92
2023-03-04T19:12:17.052Z,1.90
2023-03-04T19:14:45.734Z,1.92
2023-03-04T19:17:15.612Z,1.91
2023-03-04T19:19:44.942Z,1.87
2023-03-04T19:22:13.526Z,1.80
2023-03-04T19:24:42.008Z,1.69
2023-03-04T19:27:10.593Z,1.61
2023-03-04T19:29:41.430Z,1.59
2023-03-04T19:32:10.756Z,1.55
2023-03-04T19:34:43.103Z,1.49
2023-03-04T19:37:11.788Z,1.43
2023-03-04T19:39:43.348Z,1.41
2023-03-04T19:42:12.446Z,1.42
2023-03-04T19:44:43.682Z,1.41
2023-03-04T19:47:13.088Z,1.39
2023-03-04T19:49:49.247Z,1.35
2023-03-04T19:52:17.452Z,1.37
2023-03-04T19:54:45.698Z,1.40
2023-03-04T19:57:14.486Z,1.41
2023-03-04T19:59:42.867Z,1.40
2023-03-04T20:02:12.371Z,1.38
2023-03-04T20:04:43.000Z,1.37
2023-03-04T20:07:17.631Z,1.39
2023-03-04T20:09:47.134Z,1.40
2023-03-04T20:12:16.334Z,1.42
2023-03-04T20:14:44.711Z,1.42
2023-03-04T20:17:15.446Z,1.46
2023-03-04T20:19:44.339Z,1.50
2023-03-04T20:22:14.556Z,1.42
2023-03-04T20:24:43.044Z,1.16
2023-03-04T20:27:15.177Z,0.91
2023-03-04T20:29:46.660Z,0.75
2023-03-04T20:32:18.979Z,0.62
2023-03-04T20:34:49.764Z,0.53
2023-03-04T20:37:18.757Z,0.51
2023-03-04T20:39:47.956Z,0.51
2023-03-04T20:42:17.362Z,0.48
2023-03-04T20:44:46.248Z,0.47
2023-03-04T20:47:14.524Z,0.43
2023-03-04T20:49:43.023Z,0.39
2023-03-04T20:52:11.692Z,0.30
2023-03-04T20:54:40.688Z,0.25
2023-03-04T20:57:10.921Z,0.24
2023-03-04T20:59:41.255Z,0.22
2023-03-04T21:02:14.528Z,0.18
2023-03-04T21:04:44.317Z,0.10
2023-03-04T21:07:13.029Z,0.04
2023-03-04T21:09:45.308Z,-0.00
2023-03-04T21:12:13.982Z,-0.09
2023-03-04T21:14:46.022Z,-0.19
2023-03-04T21:17:14.945Z,-0.29
2023-03-04T21:19:43.841Z,-0.31
2023-03-04T21:22:17.132Z,-0.33
2023-03-04T21:24:45.929Z,-0.34
2023-03-04T21:27:16.762Z,-0.37
2023-03-04T21:29:45.545Z,-0.41
2023-03-04T21:32:24.252Z,-0.43
2023-03-04T21:34:54.434Z,-0.44
2023-03-04T21:37:24.060Z,-0.45
2023-03-04T21:39:55.388Z,-0.49
2023-03-04T21:42:24.662Z,-0.52
2023-03-04T21:44:59.184Z,-0.53
2023-03-04T21:47:27.769Z,-0.54
2023-03-04T21:49:57.079Z,-0.55
2023-03-04T21:52:25.767Z,-0.59
2023-03-04T21:55:15.650Z,-0.63
2023-03-04T21:57:47.209Z,-0.70
2023-03-04T22:00:16.885Z,-0.76
2023-03-04T22:02:48.370Z,-0.82
2023-03-04T22:05:19.026Z,-0.88
2023-03-04T22:07:47.594Z,-0.92
2023-03-04T22:10:18.426Z,-0.94
2023-03-04T22:12:47.828Z,-0.91
2023-03-04T22:15:23.899Z,-0.89
2023-03-04T22:17:53.945Z,-0.92
2023-03-04T22:20:33.448Z,-0.92
2023-03-04T22:23:02.184Z,-0.93
2023-03-04T22:25:35.328Z,-0.97
2023-03-04T22:28:08.670Z,-1.01
2023-03-04T22:30:39.768Z,-1.06
2023-03-04T22:33:08.662Z,-1.10
2023-03-04T22:35:41.392Z,-1.13
2023-03-04T22:38:17.506Z,-1.18
2023-03-04T22:40:46.402Z,-1.21
2023-03-04T22:43:15.709Z,-1.25
2023-03-04T22:45:44.293Z,-1.31
2023-03-04T22:48:14.711Z,-1.38
2023-03-04T22:50:43.394Z,-1.39
2023-03-04T22:53:11.667Z,-1.33
2023-03-04T22:55:41.069Z,-1.29
2023-03-04T22:58:12.933Z,-1.27
2023-03-04T23:00:46.340Z,-1.28
2023-03-04T23:03:16.033Z,-1.33
2023-03-04T23:05:44.518Z,-1.40
2023-03-04T23:08:13.712Z,-1.46
2023-03-04T23:10:42.504Z,-1.51
2023-03-04T23:13:10.984Z,-1.53
2023-03-04T23:15:40.795Z,-1.58
2023-03-04T23:18:09.689Z,-1.64
2023-03-04T23:20:42.293Z,-1.67
2023-03-04T23:23:13.103Z,-1.76
2023-03-04T23:25:41.688Z,-1.84
2023-03-04T23:28:15.097Z,-1.91
2023-03-04T23:30:44.107Z,-1.98
2023-03-04T23:33:13.792Z,-2.07
2023-03-04T23:35:43.948Z,-2.13
2023-03-04T23:38:12.710Z,-2.21
2023-03-04T23:40:41.086Z,-2.26
2023-03-04T23:43:09.557Z,-2.28
2023-03-04T23:45:38.094Z,-2.31
2023-03-04T23:48:06.741Z,-2.35
2023-03-04T23:50:36.027Z,-2.39
2023-03-04T23:53:05.745Z,-2.43
2023-03-04T23:55:36.163Z,-2.49
2023-03-04T23:58:04.642Z,-2.54
